createdAt,value
2018-10-17T00:00:49.004Z,36.72
2018-10-17T00:03:38.027Z,33.87
2018-10-17T00:06:25.420Z,35.23
2018-10-17T00:18:31.098Z,37.67
2018-10-17T00:24:26.095Z,35.77
2018-10-17T00:27:13.718Z,49.47
2018-10-17T00:36:16.389Z,39.30
2018-10-17T00:39:07.396Z,34.17
2018-10-17T00:41:55.383Z,35.97
2018-10-17T00:44:42.841Z,33.37
2018-10-17T00:47:30.959Z,37.93
2018-10-17T00:53:32.952Z,33.97
2018-10-17T00:59:27.783Z,31.40
2018-10-17T01:02:15.177Z,36.13
2018-10-17T01:08:09.042Z,35.23
2018-10-17T01:10:56.235Z,40.33
2018-10-17T01:16:52.114Z,32.80
2018-10-17T01:19:54.910Z,36.73
2018-10-17T01:25:48.823Z,37.33
2018-10-17T01:28:44.448Z,34.63
2018-10-17T01:34:53.609Z,37.67
2018-10-17T01:37:40.958Z,43.43
2018-10-17T01:43:36.318Z,41.50
2018-10-17T01:46:24.022Z,38.60
2018-10-17T01:52:31.409Z,40.10
2018-10-17T01:58:24.687Z,38.40
2018-10-17T02:07:24.938Z,39.97
2018-10-17T02:16:40.193Z,37.97
2018-10-17T02:19:35.346Z,42.33
2018-10-17T02:25:28.999Z,42.17
2018-10-17T02:34:33.107Z,35.63
2018-10-17T02:37:28.115Z,33.27
2018-10-17T02:40:16.491Z,32.90
2018-10-17T02:43:12.173Z,29.87
2018-10-17T02:45:59.915Z,37.33
2018-10-17T02:51:55.480Z,36.70
2018-10-17T02:57:49.855Z,39.35
2018-10-17T03:00:40.725Z,40.47
2018-10-17T03:03:27.764Z,32.67
2018-10-17T03:15:36.070Z,44.17
2018-10-17T03:18:25.034Z,36.73
2018-10-17T03:21:12.628Z,39.03
2018-10-17T03:36:35.047Z,35.10
2018-10-17T03:39:37.491Z,39.85
2018-10-17T03:42:25.072Z,37.40
2018-10-17T03:57:39.520Z,39.33
2018-10-17T04:00:26.937Z,37.20
2018-10-17T04:09:37.952Z,38.10
2018-10-17T04:12:25.191Z,41.87
2018-10-17T04:15:26.371Z,34.63
2018-10-17T04:18:13.760Z,39.30
2018-10-17T04:21:01.404Z,40.88
2018-10-17T04:23:49.749Z,38.05
2018-10-17T04:32:51.294Z,34.27
2018-10-17T04:35:43.501Z,34.20
2018-10-17T04:38:32.066Z,32.85
2018-10-17T04:41:20.172Z,32.03
2018-10-17T04:44:07.716Z,35.50
2018-10-17T04:50:01.827Z,29.07
2018-10-17T04:52:50.788Z,26.57
2018-10-17T04:58:48.767Z,32.87
2018-10-17T05:04:45.529Z,31.57
2018-10-17T05:07:33.006Z,33.37
2018-10-17T05:10:21.577Z,36.57
2018-10-17T05:13:09.203Z,35.87
2018-10-17T05:15:58.625Z,35.33
2018-10-17T05:18:47.057Z,36.07
2018-10-17T05:21:49.665Z,29.37
2018-10-17T05:24:39.151Z,30.40
2018-10-17T05:33:42.894Z,30.20
2018-10-17T05:36:30.673Z,31.13
2018-10-17T05:39:17.951Z,33.83
2018-10-17T05:42:05.181Z,36.80
2018-10-17T05:44:57.039Z,34.15
2018-10-17T05:47:44.666Z,31.87
2018-10-17T05:50:33.407Z,38.73
2018-10-17T05:53:22.646Z,35.60
2018-10-17T05:56:17.902Z,31.40
2018-10-17T05:59:07.829Z,34.43
2018-10-17T06:08:10.298Z,29.67
2018-10-17T06:10:58.820Z,30.33
2018-10-17T06:16:52.746Z,34.63
2018-10-17T06:19:56.616Z,34.17
2018-10-17T06:22:45.034Z,30.20
2018-10-17T06:25:32.594Z,39.50
2018-10-17T06:28:22.885Z,39.17
2018-10-17T06:31:10.276Z,38.90
2018-10-17T06:33:58.180Z,35.90
2018-10-17T06:39:52.691Z,38.70
2018-10-17T06:42:42.243Z,37.20
2018-10-17T06:45:30.167Z,36.63
2018-10-17T06:48:18.035Z,40.37
2018-10-17T06:51:06.021Z,41.57
2018-10-17T06:53:53.376Z,35.47
2018-10-17T06:56:40.902Z,36.88
2018-10-17T07:08:48.865Z,38.13
2018-10-17T07:11:39.553Z,39.42
2018-10-17T07:14:28.062Z,40.30
2018-10-17T07:17:18.741Z,39.65
2018-10-17T07:20:06.694Z,38.10
2018-10-17T07:32:21.219Z,35.17
2018-10-17T07:35:08.811Z,37.88
2018-10-17T07:37:57.353Z,50.30
2018-10-17T07:43:51.646Z,42.50
2018-10-17T07:46:39.221Z,39.67
2018-10-17T07:49:27.506Z,41.33
2018-10-17T07:52:15.849Z,40.78
2018-10-17T08:07:38.594Z,40.55
2018-10-17T08:10:26.653Z,38.88
2018-10-17T08:13:14.228Z,42.30
2018-10-17T08:19:17.415Z,41.37
2018-10-17T08:22:07.220Z,42.67
2018-10-17T08:31:06.999Z,39.25
2018-10-17T08:33:57.446Z,43.63
2018-10-17T08:36:54.244Z,47.65
2018-10-17T08:42:48.049Z,46.35
2018-10-17T08:45:35.585Z,52.97
2018-10-17T08:48:22.837Z,48.80
2018-10-17T08:51:12.692Z,40.65
2018-10-17T08:54:02.316Z,45.95
2018-10-17T08:59:57.139Z,44.80
2018-10-17T09:06:01.335Z,45.85
2018-10-17T09:08:49.926Z,37.40
2018-10-17T09:11:39.164Z,42.40
2018-10-17T09:14:29.702Z,43.78
2018-10-17T09:17:17.714Z,41.78
2018-10-17T09:20:06.348Z,40.12
2018-10-17T09:22:53.519Z,38.47
2018-10-17T09:25:43.789Z,39.13
2018-10-17T09:28:33.088Z,37.63
2018-10-17T09:31:24.649Z,40.90
2018-10-17T09:34:14.301Z,41.15
2018-10-17T09:37:02.727Z,40.03
2018-10-17T09:39:52.152Z,42.53
2018-10-17T09:42:39.311Z,36.60
2018-10-17T09:45:28.054Z,39.92
2018-10-17T09:48:15.817Z,40.58
2018-10-17T09:51:03.561Z,34.83
2018-10-17T09:53:51.544Z,37.58
2018-10-17T09:56:38.837Z,38.25
2018-10-17T09:59:26.259Z,38.75
2018-10-17T10:02:16.362Z,38.67
2018-10-17T10:05:05.408Z,37.35
2018-10-17T10:07:52.852Z,37.00
2018-10-17T10:10:42.714Z,40.38
2018-10-17T10:13:30.407Z,35.65
2018-10-17T10:16:18.854Z,42.05
2018-10-17T10:19:07.122Z,37.42
2018-10-17T10:21:54.921Z,40.40
2018-10-17T10:24:42.382Z,40.17
2018-10-17T10:27:31.109Z,40.72
2018-10-17T10:30:18.657Z,40.90
2018-10-17T10:36:13.839Z,37.80
2018-10-17T10:39:02.075Z,37.00
2018-10-17T10:41:49.375Z,40.70
2018-10-17T10:44:41.898Z,38.80
2018-10-17T10:47:29.970Z,40.90
2018-10-17T10:50:18.720Z,39.28
2018-10-17T10:53:07.033Z,41.00
2018-10-17T10:55:55.379Z,43.33
2018-10-17T10:58:45.071Z,41.00
2018-10-17T11:01:32.562Z,40.63
2018-10-17T11:04:20.722Z,37.65
2018-10-17T11:07:10.811Z,43.85
2018-10-17T11:09:58.124Z,40.33
2018-10-17T11:12:45.548Z,37.40
2018-10-17T11:18:38.991Z,36.60
2018-10-17T11:21:26.900Z,43.75
2018-10-17T11:24:14.286Z,40.45
2018-10-17T11:27:01.497Z,41.42
2018-10-17T11:29:49.289Z,36.67
2018-10-17T11:32:37.386Z,41.78
2018-10-17T11:35:24.600Z,38.67
2018-10-17T11:38:13.340Z,33.78
2018-10-17T11:41:00.951Z,37.53
2018-10-17T11:43:48.183Z,34.67
2018-10-17T11:46:35.462Z,33.10
2018-10-17T11:49:22.828Z,35.72
2018-10-17T11:52:11.059Z,43.72
2018-10-17T11:54:59.218Z,39.58
2018-10-17T11:57:46.881Z,40.72
2018-10-17T12:00:34.201Z,34.83
2018-10-17T12:03:22.187Z,35.05
2018-10-17T12:06:09.688Z,35.08
2018-10-17T12:08:59.703Z,34.08
2018-10-17T12:11:48.060Z,34.92
2018-10-17T12:14:35.438Z,34.25
2018-10-17T12:17:22.909Z,34.28
2018-10-17T12:20:10.513Z,37.35
2018-10-17T12:22:59.936Z,33.63
2018-10-17T12:25:47.343Z,33.70
2018-10-17T12:28:34.871Z,33.65
2018-10-17T12:31:22.807Z,36.45
2018-10-17T12:34:10.228Z,36.28
2018-10-17T12:36:57.676Z,37.78
2018-10-17T12:39:45.028Z,32.95
2018-10-17T12:42:32.665Z,30.67
2018-10-17T12:45:22.710Z,30.20
2018-10-17T12:48:09.964Z,33.97
2018-10-17T12:50:57.549Z,30.02
2018-10-17T12:53:45.333Z,31.62
2018-10-17T12:56:34.767Z,29.08
2018-10-17T12:59:22.171Z,35.88
2018-10-17T13:02:09.585Z,25.40
2018-10-17T13:04:59.602Z,28.40
2018-10-17T13:07:49.691Z,32.83
2018-10-17T13:10:36.805Z,28.83
2018-10-17T13:13:24.561Z,28.05
2018-10-17T13:16:15.673Z,27.75
2018-10-17T13:19:05.426Z,30.20
2018-10-17T13:21:53.926Z,30.95
2018-10-17T13:24:41.609Z,30.48
2018-10-17T13:27:28.535Z,28.87
2018-10-17T13:30:16.671Z,35.25
2018-10-17T13:33:04.198Z,29.80
2018-10-17T13:35:51.543Z,29.42
2018-10-17T13:38:49.143Z,28.90
2018-10-17T13:41:36.261Z,31.00
2018-10-17T13:44:23.451Z,30.27
2018-10-17T13:47:11.177Z,27.75
2018-10-17T13:50:03.162Z,36.40
2018-10-17T13:52:50.857Z,26.60
2018-10-17T13:55:38.924Z,30.40
2018-10-17T13:58:27.369Z,28.27
2018-10-17T14:04:20.538Z,30.62
2018-10-17T14:07:09.978Z,28.50
2018-10-17T14:09:57.293Z,27.23
2018-10-17T14:12:46.537Z,30.80
2018-10-17T14:15:33.773Z,31.58
2018-10-17T14:18:22.508Z,25.27
2018-10-17T14:21:11.750Z,21.40
2018-10-17T14:23:59.411Z,26.75
2018-10-17T14:26:47.774Z,26.27
2018-10-17T14:29:35.309Z,26.23
2018-10-17T14:32:24.699Z,24.25
2018-10-17T14:35:13.898Z,24.23
2018-10-17T14:38:01.209Z,37.35
2018-10-17T14:43:55.928Z,30.75
2018-10-17T14:46:43.448Z,30.25
2018-10-17T14:49:31.017Z,22.00
2018-10-17T14:55:24.913Z,34.05
2018-10-17T14:58:12.148Z,28.27
2018-10-17T15:01:03.682Z,22.50
2018-10-17T15:03:51.208Z,23.12
2018-10-17T15:06:38.841Z,24.35
2018-10-17T15:09:34.019Z,22.52
2018-10-17T15:12:21.540Z,22.90
2018-10-17T15:15:09.083Z,28.30
2018-10-17T15:17:58.781Z,25.08
2018-10-17T15:20:47.918Z,27.27
2018-10-17T15:23:38.052Z,29.83
2018-10-17T15:29:32.520Z,26.20
2018-10-17T15:32:22.895Z,26.83
2018-10-17T15:38:16.813Z,28.10
2018-10-17T15:41:04.922Z,25.58
2018-10-17T15:43:52.648Z,26.15
2018-10-17T15:46:55.046Z,21.95
2018-10-17T15:49:44.989Z,25.17
2018-10-17T15:52:32.705Z,27.10
2018-10-17T15:58:29.348Z,21.42
2018-10-17T16:04:22.640Z,23.50
2018-10-17T16:07:25.980Z,23.98
2018-10-17T16:10:15.525Z,24.10
2018-10-17T16:16:16.975Z,25.12
2018-10-17T16:22:11.100Z,21.67
2018-10-17T16:24:58.311Z,25.75
2018-10-17T16:27:45.788Z,24.90
2018-10-17T16:30:35.404Z,28.80
2018-10-17T16:33:22.977Z,25.83
2018-10-17T16:36:19.954Z,23.42
2018-10-17T16:39:17.803Z,24.33
2018-10-17T16:42:05.098Z,31.73
2018-10-17T16:48:02.869Z,26.92
2018-10-17T16:53:56.615Z,36.20
2018-10-17T16:56:51.810Z,31.35
2018-10-17T17:02:45.718Z,35.35
2018-10-17T17:05:33.923Z,30.50
2018-10-17T17:08:29.154Z,35.03
2018-10-17T17:11:17.468Z,35.50
2018-10-17T17:17:10.686Z,36.25
2018-10-17T17:19:58.670Z,35.33
2018-10-17T17:22:46.369Z,36.30
2018-10-17T17:25:37.017Z,38.10
2018-10-17T17:31:30.983Z,37.22
2018-10-17T17:34:20.457Z,38.67
2018-10-17T17:37:08.066Z,40.22
2018-10-17T17:39:55.422Z,36.60
2018-10-17T17:42:42.891Z,36.10
2018-10-17T17:45:48.542Z,40.28
2018-10-17T17:48:52.166Z,39.53
2018-10-17T17:51:41.728Z,44.60
2018-10-17T17:54:31.112Z,45.88
2018-10-17T17:57:18.704Z,40.12
2018-10-17T18:00:06.967Z,40.67
2018-10-17T18:02:55.429Z,44.03
2018-10-17T18:05:42.506Z,47.62
2018-10-17T18:08:30.783Z,50.75
2018-10-17T18:14:24.972Z,41.60
2018-10-17T18:17:12.199Z,49.45
2018-10-17T18:19:59.446Z,44.15
2018-10-17T18:22:46.925Z,35.05
2018-10-17T18:25:34.755Z,45.15
2018-10-17T18:28:21.985Z,40.05
2018-10-17T18:37:25.426Z,51.08
2018-10-17T18:46:34.109Z,42.65
2018-10-17T18:49:24.458Z,48.53
2018-10-17T18:52:12.148Z,39.67
2018-10-17T18:55:08.208Z,40.47
2018-10-17T18:57:57.711Z,40.15
2018-10-17T19:00:45.018Z,40.55
2018-10-17T19:03:32.971Z,35.55
2018-10-17T19:06:20.989Z,40.80
2018-10-17T19:09:08.902Z,36.30
2018-10-17T19:12:03.820Z,36.10
2018-10-17T19:14:51.488Z,37.17
2018-10-17T19:17:38.605Z,50.65
2018-10-17T19:20:32.857Z,47.03
2018-10-17T19:23:21.595Z,36.25
2018-10-17T19:26:11.191Z,38.97
2018-10-17T19:28:59.759Z,63.10
2018-10-17T19:31:48.182Z,45.72
2018-10-17T19:34:36.161Z,56.37
2018-10-17T19:37:25.035Z,49.88
2018-10-17T19:40:12.757Z,56.65
2018-10-17T19:43:01.894Z,50.63
2018-10-17T19:45:52.156Z,42.67
2018-10-17T19:48:45.129Z,46.00
2018-10-17T19:51:39.102Z,80.50
2018-10-17T19:54:26.935Z,68.43
2018-10-17T19:57:25.260Z,57.10
2018-10-17T20:00:15.267Z,56.03
2018-10-17T20:03:13.348Z,49.77
2018-10-17T20:12:12.809Z,40.15
2018-10-17T20:15:00.331Z,43.20
2018-10-17T20:24:13.515Z,50.77
2018-10-17T20:27:09.179Z,50.13
2018-10-17T20:42:22.996Z,39.37
2018-10-17T20:45:12.355Z,36.60
2018-10-17T20:51:09.141Z,40.10
2018-10-17T20:53:57.215Z,43.30
2018-10-17T20:56:46.120Z,43.05
2018-10-17T20:59:45.597Z,45.07
2018-10-17T21:02:44.034Z,51.70
2018-10-17T21:05:31.661Z,56.63
2018-10-17T21:08:19.658Z,60.27
2018-10-17T21:11:10.439Z,51.43
2018-10-17T21:14:00.279Z,44.00
2018-10-17T21:16:47.683Z,41.17
2018-10-17T21:19:35.024Z,44.07
2018-10-17T21:22:22.399Z,42.40
2018-10-17T21:25:11.789Z,40.30
2018-10-17T21:28:02.107Z,41.63
2018-10-17T21:30:49.473Z,50.93
2018-10-17T21:33:38.337Z,62.33
2018-10-17T21:36:26.960Z,50.20
2018-10-17T21:39:14.702Z,55.70
2018-10-17T21:42:02.970Z,48.23
2018-10-17T21:44:50.725Z,64.37
2018-10-17T21:47:38.232Z,70.47
2018-10-17T21:50:25.807Z,65.37
2018-10-17T21:53:13.313Z,56.57
2018-10-17T21:56:00.739Z,49.70
2018-10-17T22:02:00.415Z,44.20
2018-10-17T22:04:54.568Z,49.27
2018-10-17T22:07:53.401Z,45.27
2018-10-17T22:10:41.908Z,40.97
2018-10-17T22:16:35.683Z,45.07
2018-10-17T22:19:24.598Z,50.60
2018-10-17T22:22:11.942Z,44.20
2018-10-17T22:28:08.201Z,47.50
2018-10-17T22:30:55.523Z,52.73
2018-10-17T22:33:43.711Z,51.97
2018-10-17T22:36:31.921Z,49.77
2018-10-17T22:39:19.263Z,52.83
2018-10-17T22:42:07.432Z,49.13
2018-10-17T22:44:54.713Z,55.83
2018-10-17T22:47:43.024Z,50.13
2018-10-17T22:50:34.471Z,51.80
2018-10-17T22:53:22.913Z,49.80
2018-10-17T22:56:11.554Z,48.33
2018-10-17T22:58:59.340Z,45.30
2018-10-17T23:01:46.986Z,43.90
2018-10-17T23:04:35.478Z,46.00
2018-10-17T23:07:30.839Z,46.53
2018-10-17T23:10:18.016Z,45.83
2018-10-17T23:13:12.780Z,47.05
2018-10-17T23:16:01.482Z,46.50
2018-10-17T23:18:49.028Z,47.17
2018-10-17T23:21:40.061Z,45.50
2018-10-17T23:24:42.633Z,53.30
2018-10-17T23:27:30.019Z,53.20
2018-10-17T23:30:17.512Z,44.20
2018-10-17T23:33:05.928Z,44.53
2018-10-17T23:35:54.168Z,46.30
2018-10-17T23:38:44.632Z,40.60
2018-10-17T23:41:33.480Z,51.07
2018-10-17T23:44:23.233Z,46.10
2018-10-17T23:47:12.830Z,49.13
2018-10-17T23:50:01.063Z,49.88
2018-10-17T23:55:55.544Z,46.93
2018-10-17T23:58:44.052Z,44.13
